createdAt,value
2019-04-27T00:02:33.423Z,18.10
2019-04-27T00:05:32.262Z,16.70
2019-04-27T00:08:08.762Z,17.20
2019-04-27T00:10:46.323Z,20.10
2019-04-27T00:13:17.735Z,19.13
2019-04-27T00:16:05.630Z,17.30
2019-04-27T00:18:57.963Z,17.67
2019-04-27T00:21:55.750Z,17.37
2019-04-27T00:24:27.173Z,18.67
2019-04-27T00:26:58.688Z,19.73
2019-04-27T00:29:30.031Z,18.87
2019-04-27T00:32:01.701Z,20.47
2019-04-27T00:34:33.958Z,21.37
2019-04-27T00:37:13.501Z,22.03
2019-04-27T00:39:53.256Z,21.67
2019-04-27T00:42:27.757Z,24.37
2019-04-27T00:44:59.248Z,25.23
2019-04-27T00:47:32.743Z,25.10
2019-04-27T00:50:05.909Z,25.53
2019-04-27T00:52:37.585Z,25.00
2019-04-27T00:55:09.097Z,28.40
2019-04-27T00:57:59.746Z,27.40
2019-04-27T01:00:49.163Z,31.47
2019-04-27T01:03:57.458Z,29.53
2019-04-27T01:06:29.795Z,27.67
2019-04-27T01:09:01.322Z,32.87
2019-04-27T01:11:34.892Z,25.37
2019-04-27T01:14:06.662Z,31.17
2019-04-27T01:16:39.186Z,30.30
2019-04-27T01:19:10.947Z,31.80
2019-04-27T01:21:42.338Z,29.50
2019-04-27T01:24:13.804Z,28.93
2019-04-27T01:26:59.995Z,27.83
2019-04-27T01:29:31.629Z,27.53
2019-04-27T01:32:05.270Z,30.13
2019-04-27T01:34:36.705Z,27.70
2019-04-27T01:37:09.406Z,28.07
2019-04-27T01:39:40.720Z,28.43
2019-04-27T01:42:12.051Z,30.67
2019-04-27T01:44:43.501Z,32.77
2019-04-27T01:47:14.756Z,30.07
2019-04-27T01:49:46.012Z,32.13
2019-04-27T01:52:19.404Z,32.20
2019-04-27T01:54:50.985Z,29.40
2019-04-27T01:57:22.392Z,31.40
2019-04-27T01:59:53.755Z,29.57
2019-04-27T02:02:51.550Z,28.70
2019-04-27T02:05:33.658Z,28.60
2019-04-27T02:08:05.300Z,31.33
2019-04-27T02:10:36.659Z,33.43
2019-04-27T02:13:08.939Z,33.70
2019-04-27T02:15:40.477Z,32.47
2019-04-27T02:18:11.758Z,32.00
2019-04-27T02:20:44.479Z,31.43
2019-04-27T02:23:16.019Z,29.67
2019-04-27T02:25:47.327Z,29.67
2019-04-27T02:28:29.326Z,30.77
2019-04-27T02:31:40.489Z,30.63
2019-04-27T02:34:19.939Z,28.33
2019-04-27T02:36:51.472Z,32.73
2019-04-27T02:39:23.011Z,33.57
2019-04-27T02:41:54.447Z,32.10
2019-04-27T02:44:31.403Z,33.13
2019-04-27T02:47:02.851Z,32.57
2019-04-27T02:49:34.510Z,31.93
2019-04-27T02:52:25.584Z,33.13
2019-04-27T02:54:59.122Z,32.03
2019-04-27T02:57:30.443Z,33.17
2019-04-27T03:00:02.012Z,31.97
2019-04-27T03:02:42.880Z,32.80
2019-04-27T03:05:26.012Z,30.47
2019-04-27T03:07:59.606Z,30.77
2019-04-27T03:10:31.989Z,30.37
2019-04-27T03:13:20.024Z,33.93
2019-04-27T03:16:29.734Z,33.23
2019-04-27T03:19:29.710Z,31.83
2019-04-27T03:22:39.818Z,32.80
2019-04-27T03:25:32.563Z,34.90
2019-04-27T03:28:12.162Z,33.97
2019-04-27T03:30:43.971Z,34.70
2019-04-27T03:33:15.492Z,32.07
2019-04-27T03:35:51.705Z,33.40
2019-04-27T03:38:20.965Z,31.60
2019-04-27T03:40:53.208Z,35.33
2019-04-27T03:43:25.519Z,33.73
2019-04-27T03:46:00.205Z,30.97
2019-04-27T03:48:30.565Z,34.13
2019-04-27T03:51:26.810Z,33.77
2019-04-27T03:54:36.075Z,29.27
2019-04-27T03:57:25.595Z,29.43
2019-04-27T04:00:01.225Z,28.33
2019-04-27T04:02:34.331Z,30.53
2019-04-27T04:05:09.647Z,31.77
2019-04-27T04:07:40.619Z,27.93
2019-04-27T04:10:12.163Z,27.60
2019-04-27T04:13:00.969Z,27.57
2019-04-27T04:15:41.012Z,26.77
2019-04-27T04:18:12.556Z,28.03
2019-04-27T04:20:44.454Z,27.13
2019-04-27T04:23:15.744Z,28.77
2019-04-27T04:25:49.677Z,25.63
2019-04-27T04:28:20.316Z,26.73
2019-04-27T04:30:52.892Z,25.73
2019-04-27T04:33:24.667Z,92.20
2019-04-27T04:35:56.181Z,28.07
2019-04-27T04:38:30.215Z,25.30
2019-04-27T04:41:04.695Z,29.27
2019-04-27T04:43:49.090Z,26.67
2019-04-27T04:46:43.149Z,25.67
2019-04-27T04:49:14.565Z,25.53
2019-04-27T04:51:45.930Z,25.77
2019-04-27T04:54:19.645Z,27.23
2019-04-27T04:56:50.406Z,26.53
2019-04-27T04:59:21.774Z,27.00
2019-04-27T05:01:53.229Z,27.70
2019-04-27T05:04:24.503Z,27.87
2019-04-27T05:06:56.229Z,30.47
2019-04-27T05:09:29.398Z,29.43
2019-04-27T05:12:01.987Z,29.00
2019-04-27T05:14:33.230Z,31.80
2019-04-27T05:17:04.646Z,30.20
2019-04-27T05:19:38.962Z,35.83
2019-04-27T05:22:10.891Z,33.47
2019-04-27T05:24:42.207Z,31.73
2019-04-27T05:27:13.585Z,32.10
2019-04-27T05:29:45.333Z,38.57
2019-04-27T05:32:16.720Z,36.70
2019-04-27T05:34:49.494Z,35.47
2019-04-27T05:37:28.015Z,39.53
2019-04-27T05:39:54.407Z,35.97
2019-04-27T05:42:25.787Z,36.00
2019-04-27T05:45:10.303Z,35.37
2019-04-27T05:47:52.932Z,30.40
2019-04-27T05:50:35.519Z,32.23
2019-04-27T05:52:59.595Z,32.80
2019-04-27T05:55:30.417Z,33.37
2019-04-27T05:58:01.823Z,32.00
2019-04-27T06:00:33.242Z,35.90
2019-04-27T06:03:04.657Z,32.47
2019-04-27T06:05:36.385Z,34.93
2019-04-27T06:08:08.720Z,32.30
2019-04-27T06:10:40.304Z,32.43
2019-04-27T06:13:11.597Z,26.53
2019-04-27T06:15:42.943Z,31.20
2019-04-27T06:18:14.304Z,30.23
2019-04-27T06:20:53.454Z,32.67
2019-04-27T06:23:21.005Z,32.37
2019-04-27T06:25:52.584Z,28.87
2019-04-27T06:28:24.775Z,35.67
2019-04-27T06:30:56.442Z,33.63
2019-04-27T06:33:33.879Z,28.70
2019-04-27T06:36:01.787Z,26.80
2019-04-27T06:38:33.220Z,28.37
2019-04-27T06:41:04.924Z,29.03
2019-04-27T06:43:36.285Z,29.57
2019-04-27T06:46:08.810Z,30.83
2019-04-27T06:48:40.299Z,32.33
2019-04-27T06:51:11.772Z,29.10
2019-04-27T06:53:43.058Z,26.43
2019-04-27T06:56:14.334Z,27.60
2019-04-27T06:58:45.936Z,26.40
2019-04-27T07:01:19.032Z,25.00
2019-04-27T07:03:50.561Z,30.77
2019-04-27T07:06:21.934Z,26.10
2019-04-27T07:08:55.245Z,26.83
2019-04-27T07:11:26.152Z,27.87
2019-04-27T07:13:59.375Z,26.90
2019-04-27T07:16:30.938Z,29.23
2019-04-27T07:19:02.317Z,24.83
2019-04-27T07:21:33.855Z,26.50
2019-04-27T07:24:05.384Z,24.63
2019-04-27T07:26:36.765Z,23.23
2019-04-27T07:29:09.605Z,26.87
2019-04-27T07:31:40.923Z,25.03
2019-04-27T07:34:13.563Z,27.43
2019-04-27T07:36:45.093Z,27.67
2019-04-27T07:39:16.465Z,26.97
2019-04-27T07:41:48.759Z,26.63
2019-04-27T07:44:29.400Z,26.20
2019-04-27T07:47:19.502Z,24.77
2019-04-27T07:49:51.124Z,23.23
2019-04-27T07:52:41.654Z,25.83
2019-04-27T07:55:13.165Z,27.90
2019-04-27T07:57:44.831Z,24.97
2019-04-27T08:00:19.065Z,26.67
2019-04-27T08:02:50.515Z,22.03
2019-04-27T08:05:22.500Z,21.53
2019-04-27T08:07:53.912Z,20.90
2019-04-27T08:10:25.207Z,21.77
2019-04-27T08:12:56.492Z,24.37
2019-04-27T08:15:29.083Z,22.27
2019-04-27T08:18:01.004Z,20.37
2019-04-27T08:20:33.060Z,20.17
2019-04-27T08:23:04.466Z,19.93
2019-04-27T08:25:36.319Z,23.47
2019-04-27T08:28:15.297Z,21.20
2019-04-27T08:31:08.942Z,21.40
2019-04-27T08:33:40.299Z,18.03
2019-04-27T08:36:11.889Z,17.63
2019-04-27T08:38:43.257Z,18.67
2019-04-27T08:41:15.123Z,18.83
2019-04-27T08:43:46.672Z,17.53
2019-04-27T08:46:18.640Z,16.33
2019-04-27T08:48:50.148Z,18.23
2019-04-27T08:51:21.353Z,18.43
2019-04-27T08:53:52.967Z,15.00
2019-04-27T08:56:24.215Z,14.77
2019-04-27T08:58:55.677Z,15.37
2019-04-27T09:01:26.990Z,14.60
2019-04-27T09:03:59.250Z,14.40
2019-04-27T09:06:31.208Z,13.83
2019-04-27T09:09:09.521Z,12.07
2019-04-27T09:11:55.863Z,11.10
2019-04-27T09:14:39.000Z,11.60
2019-04-27T09:17:19.231Z,10.47
2019-04-27T09:20:09.621Z,11.20
2019-04-27T09:22:42.161Z,12.83
2019-04-27T09:25:13.603Z,9.80
2019-04-27T09:27:44.816Z,9.90
2019-04-27T09:30:16.801Z,13.17
2019-04-27T09:32:48.181Z,12.17
2019-04-27T09:35:19.510Z,14.63
2019-04-27T09:37:51.355Z,10.90
2019-04-27T09:40:22.871Z,11.60
2019-04-27T09:42:54.129Z,10.37
2019-04-27T09:45:27.113Z,14.37
2019-04-27T09:47:58.899Z,9.33
2019-04-27T09:50:30.401Z,10.20
2019-04-27T09:53:02.206Z,8.53
2019-04-27T09:55:33.755Z,9.47
2019-04-27T09:58:05.833Z,7.07
2019-04-27T10:00:37.971Z,9.57
2019-04-27T10:03:09.359Z,7.70
2019-04-27T10:05:40.726Z,7.40
2019-04-27T10:08:12.013Z,8.10
2019-04-27T10:10:43.428Z,6.10
2019-04-27T10:13:15.568Z,4.47
2019-04-27T10:15:46.861Z,5.23
2019-04-27T10:18:18.375Z,4.93
2019-04-27T10:20:59.038Z,3.40
2019-04-27T10:23:24.104Z,2.40
2019-04-27T10:25:55.792Z,4.27
2019-04-27T10:28:27.712Z,4.33
2019-04-27T10:30:59.512Z,3.07
2019-04-27T10:33:32.554Z,3.53
2019-04-27T10:36:03.952Z,3.70
2019-04-27T10:38:35.988Z,3.03
2019-04-27T10:41:07.838Z,2.43
2019-04-27T10:43:39.074Z,3.87
2019-04-27T10:46:10.336Z,2.90
2019-04-27T10:48:41.542Z,3.70
2019-04-27T10:51:13.250Z,4.73
2019-04-27T10:53:45.675Z,3.80
2019-04-27T10:56:17.045Z,3.93
2019-04-27T10:58:49.806Z,4.13
2019-04-27T11:01:21.230Z,4.13
2019-04-27T11:04:00.145Z,4.33
2019-04-27T11:06:34.916Z,3.47
2019-04-27T11:09:10.356Z,4.27
2019-04-27T11:11:42.281Z,3.80
2019-04-27T11:14:13.632Z,4.40
2019-04-27T11:16:45.952Z,5.07
2019-04-27T11:19:17.624Z,3.63
2019-04-27T11:21:49.072Z,4.30
2019-04-27T11:24:20.523Z,5.80
2019-04-27T11:26:52.236Z,7.17
2019-04-27T11:29:23.734Z,3.57
2019-04-27T11:31:55.614Z,3.10
2019-04-27T11:34:55.910Z,3.60
2019-04-27T11:37:31.446Z,4.63
2019-04-27T11:40:02.912Z,3.30
2019-04-27T11:42:34.283Z,4.90
2019-04-27T11:45:06.646Z,3.43
2019-04-27T11:47:38.276Z,4.03
2019-04-27T11:50:10.697Z,6.07
2019-04-27T11:52:42.132Z,4.20
2019-04-27T11:55:16.081Z,3.00
2019-04-27T11:57:47.793Z,3.23
2019-04-27T12:00:22.535Z,3.67
2019-04-27T12:02:53.956Z,5.70
2019-04-27T12:05:26.076Z,3.83
2019-04-27T12:07:57.569Z,5.03
2019-04-27T12:10:28.978Z,4.50
2019-04-27T12:13:00.330Z,3.47
2019-04-27T12:15:31.773Z,2.93
2019-04-27T12:18:03.209Z,4.77
2019-04-27T12:20:35.957Z,3.67
2019-04-27T12:23:07.581Z,5.10
2019-04-27T12:25:39.576Z,2.57
2019-04-27T12:28:27.232Z,3.00
2019-04-27T12:31:11.563Z,2.93
2019-04-27T12:33:42.986Z,2.80
2019-04-27T12:36:15.708Z,2.10
2019-04-27T12:38:47.174Z,2.97
2019-04-27T12:41:18.620Z,3.50
2019-04-27T12:43:50.050Z,2.80
2019-04-27T12:46:21.494Z,2.27
2019-04-27T12:48:54.578Z,3.23
2019-04-27T12:51:26.181Z,1.50
2019-04-27T12:54:22.819Z,2.10
2019-04-27T12:57:11.767Z,2.57
2019-04-27T12:59:57.810Z,1.17
2019-04-27T13:02:32.087Z,2.53
2019-04-27T13:05:05.686Z,2.20
2019-04-27T13:07:37.161Z,1.73
2019-04-27T13:10:08.981Z,4.47
2019-04-27T13:12:42.276Z,2.07
2019-04-27T13:15:14.058Z,2.17
2019-04-27T13:17:45.515Z,2.00
2019-04-27T13:20:17.437Z,0.80
2019-04-27T13:22:48.803Z,0.70
2019-04-27T13:25:20.179Z,3.33
2019-04-27T13:27:51.793Z,0.93
2019-04-27T13:30:23.370Z,0.77
2019-04-27T13:32:56.239Z,2.50
2019-04-27T13:35:28.692Z,1.57
2019-04-27T13:38:00.232Z,1.10
2019-04-27T13:40:35.672Z,1.17
2019-04-27T13:43:16.886Z,1.13
2019-04-27T13:45:55.625Z,1.17
2019-04-27T13:48:56.254Z,0.40
2019-04-27T13:51:57.482Z,0.50
2019-04-27T13:54:29.258Z,0.80
2019-04-27T13:57:00.881Z,1.67
2019-04-27T13:59:32.159Z,1.10
2019-04-27T14:02:03.661Z,1.97
2019-04-27T14:04:35.054Z,0.60
2019-04-27T14:07:06.877Z,2.83
2019-04-27T14:09:39.248Z,2.70
2019-04-27T14:12:21.402Z,0.60
2019-04-27T14:14:54.094Z,1.67
2019-04-27T14:17:25.884Z,0.60
2019-04-27T14:19:57.303Z,1.17
2019-04-27T14:22:31.499Z,2.73
2019-04-27T14:25:02.462Z,2.13
2019-04-27T14:27:40.620Z,0.90
2019-04-27T14:30:15.590Z,1.33
2019-04-27T14:32:47.047Z,2.40
2019-04-27T14:35:18.483Z,2.63
2019-04-27T14:37:50.344Z,2.23
2019-04-27T14:40:21.795Z,1.77
2019-04-27T14:42:53.729Z,1.70
2019-04-27T14:45:25.953Z,1.80
2019-04-27T14:47:58.204Z,1.53
2019-04-27T14:50:29.645Z,2.07
2019-04-27T14:53:01.019Z,3.73
2019-04-27T14:55:32.580Z,3.17
2019-04-27T14:58:04.317Z,1.83
2019-04-27T15:00:35.744Z,2.50
2019-04-27T15:03:07.122Z,2.10
2019-04-27T15:05:38.824Z,1.30
2019-04-27T15:08:10.232Z,1.20
2019-04-27T15:10:41.694Z,1.87
2019-04-27T15:13:13.312Z,2.87
2019-04-27T15:15:44.662Z,2.33
2019-04-27T15:18:16.033Z,1.57
2019-04-27T15:20:47.465Z,2.10
2019-04-27T15:23:20.117Z,1.57
2019-04-27T15:25:51.559Z,1.70
2019-04-27T15:28:27.080Z,2.77
2019-04-27T15:31:23.538Z,4.93
2019-04-27T15:34:15.594Z,3.40
2019-04-27T15:36:58.322Z,1.80
2019-04-27T15:39:57.811Z,2.80
2019-04-27T15:42:41.660Z,3.43
2019-04-27T15:45:11.929Z,2.00
2019-04-27T15:47:46.881Z,1.60
2019-04-27T15:50:15.989Z,1.93
2019-04-27T15:52:48.773Z,1.77
2019-04-27T15:55:32.360Z,3.13
2019-04-27T15:57:53.643Z,2.53
2019-04-27T16:00:28.831Z,3.20
2019-04-27T16:03:00.718Z,5.77
2019-04-27T16:05:35.789Z,3.27
2019-04-27T16:08:12.856Z,2.10
2019-04-27T16:10:40.290Z,2.90
2019-04-27T16:13:15.115Z,1.57
2019-04-27T16:15:48.141Z,1.43
2019-04-27T16:18:18.686Z,2.37
2019-04-27T16:20:50.059Z,1.60
2019-04-27T16:23:21.359Z,3.33
2019-04-27T16:25:53.112Z,1.60
2019-04-27T16:28:24.427Z,3.50
2019-04-27T16:30:55.853Z,1.67
2019-04-27T16:33:28.796Z,0.97
2019-04-27T16:36:06.444Z,1.37
2019-04-27T16:38:41.096Z,2.13
2019-04-27T16:41:12.509Z,1.70
2019-04-27T16:43:45.633Z,1.57
2019-04-27T16:46:21.035Z,1.70
2019-04-27T16:48:50.262Z,2.80
2019-04-27T16:51:21.704Z,3.87
2019-04-27T16:53:54.762Z,2.37
2019-04-27T16:56:26.113Z,3.73
2019-04-27T16:59:10.018Z,3.10
2019-04-27T17:01:33.875Z,2.03
2019-04-27T17:04:06.442Z,1.93
2019-04-27T17:06:45.361Z,2.00
2019-04-27T17:09:11.853Z,1.87
2019-04-27T17:11:50.409Z,2.17
2019-04-27T17:14:34.760Z,1.63
2019-04-27T17:17:12.929Z,3.80
2019-04-27T17:19:51.259Z,4.77
2019-04-27T17:22:23.300Z,2.30
2019-04-27T17:24:55.333Z,5.47
2019-04-27T17:27:38.251Z,2.63
2019-04-27T17:30:10.805Z,1.87
2019-04-27T17:33:01.494Z,1.70
2019-04-27T17:35:34.677Z,1.33
2019-04-27T17:38:10.669Z,1.83
2019-04-27T17:40:40.468Z,0.90
2019-04-27T17:43:11.737Z,1.00
2019-04-27T17:45:44.416Z,0.77
2019-04-27T17:48:15.702Z,1.47
2019-04-27T17:50:48.874Z,0.80
2019-04-27T17:53:20.448Z,2.10
2019-04-27T17:55:55.025Z,2.37
2019-04-27T17:58:25.863Z,1.50
2019-04-27T18:00:58.008Z,1.57
2019-04-27T18:03:31.147Z,1.83
2019-04-27T18:06:02.383Z,2.23
2019-04-27T18:08:34.000Z,2.87
2019-04-27T18:11:05.798Z,3.90
2019-04-27T18:13:38.827Z,2.27
2019-04-27T18:16:10.613Z,2.63
2019-04-27T18:19:07.666Z,2.97
2019-04-27T18:21:33.925Z,2.70
2019-04-27T18:24:13.777Z,1.53
2019-04-27T18:27:03.228Z,5.13
2019-04-27T18:29:32.484Z,1.80
2019-04-27T18:32:04.001Z,2.77
2019-04-27T18:34:35.329Z,3.53
2019-04-27T18:37:06.919Z,2.50
2019-04-27T18:39:40.710Z,3.17
2019-04-27T18:42:11.635Z,4.47
2019-04-27T18:44:43.151Z,1.83
2019-04-27T18:47:14.444Z,2.73
2019-04-27T18:50:10.873Z,1.40
2019-04-27T18:52:49.507Z,2.70
2019-04-27T18:55:20.764Z,4.80
2019-04-27T18:57:54.350Z,2.37
2019-04-27T19:00:25.801Z,3.17
2019-04-27T19:02:58.480Z,2.73
2019-04-27T19:05:39.666Z,2.03
2019-04-27T19:08:03.744Z,3.77
2019-04-27T19:10:35.266Z,2.00
2019-04-27T19:13:08.793Z,3.57
2019-04-27T19:15:40.568Z,4.90
2019-04-27T19:18:12.209Z,2.73
2019-04-27T19:20:43.738Z,2.37
2019-04-27T19:23:15.443Z,2.53
2019-04-27T19:26:08.832Z,2.27
2019-04-27T19:29:05.319Z,3.67
2019-04-27T19:31:41.099Z,2.33
2019-04-27T19:34:12.492Z,2.43
2019-04-27T19:36:44.222Z,3.83
2019-04-27T19:39:18.076Z,4.10
2019-04-27T19:42:00.206Z,3.27
2019-04-27T19:44:24.501Z,5.30
2019-04-27T19:46:55.963Z,4.60
2019-04-27T19:49:29.382Z,4.10
2019-04-27T19:52:00.958Z,4.37
2019-04-27T19:54:32.897Z,3.93
2019-04-27T19:57:04.393Z,2.97
2019-04-27T19:59:42.493Z,3.30
2019-04-27T20:02:20.313Z,2.90
2019-04-27T20:04:58.778Z,4.03
2019-04-27T20:07:30.369Z,5.80
2019-04-27T20:10:03.185Z,6.67
2019-04-27T20:12:35.119Z,6.30
2019-04-27T20:15:07.894Z,3.97
2019-04-27T20:17:40.886Z,4.93
2019-04-27T20:20:12.878Z,4.03
2019-04-27T20:22:44.606Z,5.07
2019-04-27T20:25:16.077Z,5.87
2019-04-27T20:27:49.403Z,4.90
2019-04-27T20:30:22.774Z,5.97
2019-04-27T20:32:54.125Z,3.90
2019-04-27T20:35:25.486Z,3.73
2019-04-27T20:37:57.003Z,5.30
2019-04-27T20:40:28.391Z,6.23
2019-04-27T20:43:01.641Z,4.77
2019-04-27T20:45:33.917Z,5.03
2019-04-27T20:48:05.567Z,4.53
2019-04-27T20:50:37.246Z,7.20
2019-04-27T20:53:12.609Z,9.07
2019-04-27T20:55:43.990Z,7.37
2019-04-27T20:58:15.706Z,5.73
2019-04-27T21:00:47.150Z,8.37
2019-04-27T21:03:25.071Z,3.63
2019-04-27T21:06:15.269Z,6.53
2019-04-27T21:08:46.663Z,5.07
2019-04-27T21:11:18.097Z,8.63
2019-04-27T21:13:49.587Z,6.20
2019-04-27T21:16:21.195Z,6.20
2019-04-27T21:18:53.254Z,6.37
2019-04-27T21:21:24.611Z,5.47
2019-04-27T21:23:55.834Z,6.07
2019-04-27T21:26:27.109Z,4.47
2019-04-27T21:28:58.401Z,4.37
2019-04-27T21:31:31.523Z,4.93
2019-04-27T21:34:02.844Z,4.27
2019-04-27T21:36:34.255Z,5.27
2019-04-27T21:39:07.234Z,6.67
2019-04-27T21:41:41.324Z,4.17
2019-04-27T21:44:12.919Z,4.10
2019-04-27T21:46:44.180Z,3.37
2019-04-27T21:49:15.660Z,4.27
2019-04-27T21:52:05.732Z,5.80
2019-04-27T21:54:38.166Z,5.63
2019-04-27T21:57:10.989Z,7.43
2019-04-27T21:59:43.961Z,8.37
2019-04-27T22:02:16.398Z,5.83
2019-04-27T22:04:47.751Z,5.47
2019-04-27T22:07:19.179Z,4.37
2019-04-27T22:09:51.697Z,4.27
2019-04-27T22:12:23.189Z,6.37
2019-04-27T22:14:54.427Z,4.33
2019-04-27T22:17:25.849Z,2.90
2019-04-27T22:19:58.423Z,7.37
2019-04-27T22:22:36.951Z,4.40
2019-04-27T22:25:11.646Z,5.50
2019-04-27T22:27:44.069Z,5.47
2019-04-27T22:30:15.985Z,2.73
2019-04-27T22:32:47.214Z,2.60
2019-04-27T22:35:18.526Z,3.33
2019-04-27T22:37:51.749Z,2.80
2019-04-27T22:40:41.932Z,3.73
2019-04-27T22:43:34.052Z,2.70
2019-04-27T22:46:07.427Z,2.43
2019-04-27T22:48:38.945Z,2.90
2019-04-27T22:51:11.703Z,2.70
2019-04-27T22:53:43.036Z,5.10
2019-04-27T22:56:22.177Z,2.77
2019-04-27T22:59:04.619Z,5.00
2019-04-27T23:01:48.987Z,2.03
2019-04-27T23:04:23.574Z,3.83
2019-04-27T23:06:55.016Z,3.27
2019-04-27T23:09:26.467Z,3.00
2019-04-27T23:11:57.838Z,2.73
2019-04-27T23:14:29.160Z,3.50
2019-04-27T23:17:11.204Z,4.10
2019-04-27T23:19:42.803Z,5.67
2019-04-27T23:22:14.647Z,2.83
2019-04-27T23:24:45.913Z,7.87
2019-04-27T23:27:17.189Z,3.87
2019-04-27T23:29:48.559Z,3.07
2019-04-27T23:32:26.650Z,3.23
2019-04-27T23:34:58.057Z,3.13
2019-04-27T23:37:29.319Z,4.40
2019-04-27T23:40:02.875Z,2.57
2019-04-27T23:42:34.154Z,2.47
2019-04-27T23:45:06.977Z,2.47
2019-04-27T23:47:38.586Z,3.57
2019-04-27T23:50:10.934Z,3.17
2019-04-27T23:52:59.698Z,4.60
2019-04-27T23:55:33.429Z,4.07
2019-04-27T23:58:04.880Z,2.23
